Time;durP1;ratioP1;P1;durP2;ratioP2;P2;SDS_P1;SDS_P2;PMS_P1;PMS_P2;Temp;Humidity;BMP_temperature;BMP_pressure;BME280_temperature;BME280_humidity;BME280_pressure;Samples;Min_cycle;Max_cycle;Signal;HPM_P1;HPM_P2
2022/07/19 00:00:32;;;;;;;5.95;4.05;;;17.60;99.90;17.00;100851;;;;562297;250;35251;-84
2022/07/19 00:03:00;;;;;;;3.87;3.57;;;17.60;99.90;17.00;100851;;;;546532;257;24141;-84
2022/07/19 00:05:28;;;;;;;4.83;3.53;;;17.50;99.90;17.00;100855;;;;576122;248;24093;-83
2022/07/19 00:07:56;;;;;;;4.67;3.67;;;17.50;99.90;17.00;100857;;;;556109;252;24200;-83
2022/07/19 00:10:24;;;;;;;7.03;3.63;;;17.50;99.90;17.00;100854;;;;567648;250;24131;-83
2022/07/19 00:12:52;;;;;;;3.83;3.50;;;17.50;99.90;17.00;100853;;;;556062;251;24193;-82
2022/07/19 00:15:21;;;;;;;5.13;3.43;;;17.50;99.90;16.90;100851;;;;576124;249;24111;-77
2022/07/19 00:17:48;;;;;;;4.03;3.70;;;17.50;99.90;16.90;100847;;;;557901;254;24118;-75
2022/07/19 00:20:16;;;;;;;3.83;3.50;;;17.50;99.90;16.90;100839;;;;557406;254;24147;-78
2022/07/19 00:22:47;;;;;;;5.37;4.20;;;17.50;99.90;16.90;100850;;;;567562;250;24117;-83
2022/07/19 00:25:12;;;;;;;4.87;3.20;;;17.50;99.90;16.90;100851;;;;557975;253;24147;-77
2022/07/19 00:27:41;;;;;;;4.07;3.70;;;17.50;99.90;16.90;100845;;;;568568;249;24089;-77
2022/07/19 00:30:12;;;;;;;4.83;3.30;;;17.50;99.90;16.90;100838;;;;548830;257;24163;-77
2022/07/19 00:32:36;;;;;;;3.87;3.40;;;17.50;99.90;16.80;100838;;;;567496;250;24108;-74
2022/07/19 00:35:04;;;;;;;6.70;3.90;;;17.40;99.90;16.80;100846;;;;556240;251;24104;-76
2022/07/19 00:37:32;;;;;;;5.95;4.30;;;17.40;99.90;16.80;100836;;;;553084;254;35521;-78
2022/07/19 00:40:00;;;;;;;9.27;4.63;;;17.40;99.90;16.80;100834;;;;576316;249;24066;-80
2022/07/19 00:42:30;;;;;;;4.50;4.10;;;17.40;99.90;16.80;100833;;;;556119;251;24148;-77
2022/07/19 00:44:55;;;;;;;4.80;4.03;;;17.40;99.90;16.80;100831;;;;567324;250;24136;-82
2022/07/19 00:47:23;;;;;;;5.30;3.90;;;17.40;99.90;16.80;100827;;;;547645;259;24158;-74
2022/07/19 00:49:51;;;;;;;4.53;3.73;;;17.40;99.90;16.80;100825;;;;567384;250;24083;-74
2022/07/19 00:52:19;;;;;;;5.10;4.57;;;17.40;99.90;16.80;100825;;;;556145;252;24117;-80
2022/07/19 00:54:47;;;;;;;4.43;4.03;;;17.40;99.90;16.80;100832;;;;566059;248;24106;-77
2022/07/19 00:57:15;;;;;;;5.07;4.40;;;17.40;99.90;16.70;100826;;;;567534;250;24149;-75
2022/07/19 00:59:43;;;;;;;5.37;4.10;;;17.30;99.90;16.70;100824;;;;547731;259;24132;-80
2022/07/19 01:02:11;;;;;;;7.13;4.77;;;17.30;99.90;16.70;100829;;;;575762;249;24156;-76
2022/07/19 01:04:39;;;;;;;4.80;3.80;;;17.30;99.90;16.70;100830;;;;565826;248;24139;-76
2022/07/19 01:07:07;;;;;;;5.87;4.57;;;17.30;99.90;16.70;100826;;;;565637;252;24146;-79
2022/07/19 01:09:35;;;;;;;4.43;3.53;;;17.30;99.90;16.70;100826;;;;576022;249;24076;-75
2022/07/19 01:12:05;;;;;;;7.13;4.10;;;17.30;99.90;16.70;100825;;;;565875;252;24203;-82
2022/07/19 01:14:31;;;;;;;7.80;4.53;;;17.30;99.90;16.70;100829;;;;569000;247;24172;-85
2022/07/19 01:17:04;;;;;;;5.20;4.40;;;17.30;99.90;16.70;100826;;;;575087;247;24067;-85
2022/07/19 01:19:29;;;;;;;7.13;4.53;;;17.30;99.90;16.80;100825;;;;574803;247;24076;-85
2022/07/19 01:21:58;;;;;;;4.93;4.43;;;17.30;99.90;16.80;100820;;;;581607;246;24117;-83
2022/07/19 01:24:25;;;;;;;4.67;4.20;;;17.30;99.90;16.80;100820;;;;581669;240;24123;-85
2022/07/19 01:26:53;;;;;;;6.43;5.57;;;17.40;99.90;16.80;100814;;;;577009;247;35109;-87
2022/07/19 01:29:24;;;;;;;4.83;4.37;;;17.40;99.90;16.80;100813;;;;582060;240;24066;-85
2022/07/19 01:31:49;;;;;;;5.87;3.97;;;17.40;99.90;16.90;100814;;;;579021;247;24052;-84
2022/07/19 01:34:17;;;;;;;4.83;4.40;;;17.40;99.90;16.90;100816;;;;582148;247;24060;-86
2022/07/19 01:36:46;;;;;;;5.03;4.00;;;17.50;99.90;16.90;100816;;;;583286;245;24052;-84
2022/07/19 01:39:14;;;;;;;7.03;4.17;;;17.50;99.90;16.90;100814;;;;584181;246;24096;-86
2022/07/19 01:41:42;;;;;;;5.93;4.13;;;17.50;99.90;16.90;100804;;;;583906;246;24069;-85
2022/07/19 01:44:10;;;;;;;6.40;5.00;;;17.50;99.90;16.90;100806;;;;583786;246;24093;-85
2022/07/19 01:46:41;;;;;;;4.77;4.33;;;17.50;99.90;16.90;100808;;;;583316;241;24068;-87
2022/07/19 01:49:05;;;;;;;4.70;4.20;;;17.50;99.90;16.90;100796;;;;576204;247;24049;-84
2022/07/19 01:51:33;;;;;;;5.97;4.97;;;17.50;99.90;16.90;100797;;;;583256;240;24099;-83
2022/07/19 01:54:01;;;;;;;6.10;5.20;;;17.50;99.90;16.90;100793;;;;582769;240;24104;-86
2022/07/19 01:56:29;;;;;;;7.97;4.70;;;17.50;99.90;16.90;100798;;;;590237;242;24063;-85
2022/07/19 01:58:57;;;;;;;8.43;4.70;;;17.50;99.90;16.90;100797;;;;581417;243;24074;-86
2022/07/19 02:01:28;;;;;;;6.37;4.87;;;17.50;99.90;16.90;100797;;;;581329;243;24093;-84
2022/07/19 02:03:53;;;;;;;5.63;3.83;;;17.50;99.90;17.00;100800;;;;581022;243;24124;-82
2022/07/19 02:06:21;;;;;;;7.23;4.80;;;17.50;99.90;16.90;100797;;;;581307;243;24051;-83
2022/07/19 02:08:49;;;;;;;5.37;4.50;;;17.50;99.90;16.90;100790;;;;581179;243;24046;-87
2022/07/19 02:11:35;;;;;;;5.83;4.47;;;17.50;99.90;16.90;100786;;;;581388;243;25113;-87
2022/07/19 02:14:06;;;;;;;5.33;4.83;;;17.50;99.90;17.00;100778;;;;580949;243;24094;-83
2022/07/19 02:16:31;;;;;;;6.43;4.93;;;17.50;99.90;17.00;100786;;;;582870;243;24058;-83
2022/07/19 02:19:00;;;;;;;5.20;4.67;;;17.50;99.90;17.00;100782;;;;585640;240;24056;-85
2022/07/19 02:21:28;;;;;;;6.93;5.30;;;17.50;99.90;17.00;100785;;;;583434;243;24057;-85
2022/07/19 02:23:56;;;;;;;6.87;4.80;;;17.50;99.90;17.00;100778;;;;581113;243;24063;-85
2022/07/19 02:26:24;;;;;;;5.10;4.60;;;17.60;99.90;17.00;100772;;;;580987;243;24113;-85
2022/07/19 02:28:52;;;;;;;7.67;4.77;;;17.60;99.90;17.00;100771;;;;581476;243;24095;-85
2022/07/19 02:31:20;;;;;;;6.27;5.00;;;17.60;99.90;17.00;100775;;;;583659;243;24042;-84
2022/07/19 02:33:48;;;;;;;10.07;5.10;;;17.60;99.90;17.00;100771;;;;593161;238;24056;-87
2022/07/19 02:36:17;;;;;;;6.85;5.97;;;17.60;99.90;17.00;100779;;;;581762;243;35109;-84
2022/07/19 02:38:47;;;;;;;5.80;4.83;;;17.60;99.90;17.00;100781;;;;584319;243;24088;-86
2022/07/19 02:41:14;;;;;;;7.07;4.90;;;17.60;99.90;17.10;100770;;;;583967;243;24058;-86
2022/07/19 02:43:39;;;;;;;4.10;3.70;;;17.60;99.90;17.10;100762;;;;586325;243;24051;-87
2022/07/19 02:46:07;;;;;;;7.87;4.43;;;17.60;99.90;17.10;100770;;;;583780;243;24058;-86
2022/07/19 02:48:35;;;;;;;5.83;5.00;;;17.70;99.90;17.10;100761;;;;582342;242;24099;-85
2022/07/19 02:51:06;;;;;;;8.97;5.00;;;17.70;99.90;17.20;100772;;;;582726;242;24061;-85
2022/07/19 02:53:31;;;;;;;5.77;4.30;;;17.70;99.90;17.20;100770;;;;584568;242;24041;-82
2022/07/19 02:55:59;;;;;;;7.67;4.27;;;17.80;99.90;17.20;100770;;;;583011;242;24123;-87
2022/07/19 02:58:27;;;;;;;5.43;4.53;;;17.80;99.90;17.20;100774;;;;593464;242;24039;-85
2022/07/19 03:00:58;;;;;;;5.00;4.30;;;17.80;99.90;17.30;100770;;;;581642;242;24067;-84
2022/07/19 03:06:08;;;;;;;5.27;4.30;;;17.90;99.90;17.30;100767;;;;592782;242;24073;-85
2022/07/19 03:08:36;;;;;;;7.53;4.40;;;17.90;99.90;17.40;100769;;;;590093;243;24040;-85
2022/07/19 03:11:07;;;;;;;12.13;4.90;;;17.90;99.90;17.40;100760;;;;584263;243;24062;-82
2022/07/19 03:13:32;;;;;;;5.03;4.53;;;18.00;99.90;17.50;100763;;;;584611;243;24059;-84
2022/07/19 03:16:00;;;;;;;6.57;4.77;;;18.00;99.90;17.50;100757;;;;582548;238;24073;-82
2022/07/19 03:18:28;;;;;;;5.57;4.70;;;18.10;99.90;17.50;100755;;;;582295;243;24174;-83
2022/07/19 03:20:58;;;;;;;4.63;4.20;;;18.10;99.90;17.60;100756;;;;581817;243;24043;-84
2022/07/19 03:23:24;;;;;;;4.93;4.53;;;18.10;99.90;17.60;100766;;;;581118;243;24071;-83
2022/07/19 03:25:52;;;;;;;4.70;4.30;;;18.20;99.90;17.60;100763;;;;583136;243;24097;-83
2022/07/19 03:28:20;;;;;;;5.03;4.53;;;18.20;99.90;17.70;100763;;;;583647;243;24044;-82
2022/07/19 03:30:48;;;;;;;8.27;4.90;;;18.20;99.90;17.70;100758;;;;581431;243;24097;-82
2022/07/19 03:33:18;;;;;;;4.80;4.33;;;18.20;99.90;17.70;100762;;;;581300;243;24030;-82
2022/07/19 03:35:46;;;;;;;5.30;4.80;;;18.20;99.90;17.70;100764;;;;581419;243;24080;-82
2022/07/19 03:38:16;;;;;;;6.93;4.93;;;18.30;99.90;17.80;100763;;;;583557;242;24056;-82
2022/07/19 03:40:46;;;;;;;7.40;4.67;;;18.30;99.90;17.80;100765;;;;592276;238;24043;-81
2022/07/19 03:43:11;;;;;;;5.00;4.60;;;18.40;99.90;17.80;100762;;;;583218;240;24049;-82
2022/07/19 03:45:39;;;;;;;4.93;4.43;;;18.40;99.90;17.90;100759;;;;581407;243;24059;-85
2022/07/19 03:48:07;;;;;;;5.13;4.53;;;18.40;99.90;17.90;100766;;;;581400;243;24057;-85
2022/07/19 03:50:35;;;;;;;5.27;4.73;;;18.40;99.90;17.90;100764;;;;589936;243;24043;-85
2022/07/19 03:53:02;;;;;;;4.87;4.37;;;18.50;99.90;17.90;100761;;;;581364;243;24044;-86
2022/07/19 03:55:30;;;;;;;5.97;4.53;;;18.50;99.90;18.00;100760;;;;581291;243;24069;-86
2022/07/19 03:58:01;;;;;;;7.50;5.00;;;18.50;99.90;18.00;100764;;;;580938;243;24126;-86
2022/07/19 04:00:26;;;;;;;6.00;5.07;;;18.50;99.90;18.10;100766;;;;581718;242;24370;-84
2022/07/19 04:02:54;;;;;;;6.43;4.77;;;18.60;99.90;18.10;100761;;;;584410;242;24058;-84
2022/07/19 04:05:22;;;;;;;5.33;4.83;;;18.60;99.90;18.20;100756;;;;581711;242;24081;-85
2022/07/19 04:07:50;;;;;;;4.97;4.57;;;18.70;99.90;18.20;100757;;;;581887;242;24056;-86
2022/07/19 04:10:18;;;;;;;6.80;4.37;;;18.80;99.90;18.30;100755;;;;581507;242;24062;-86
2022/07/19 04:12:46;;;;;;;5.67;5.00;;;18.80;99.90;18.40;100758;;;;581560;242;24083;-82
2022/07/19 04:15:14;;;;;;;5.70;4.73;;;18.80;99.90;18.50;100758;;;;592814;242;24168;-83
2022/07/19 04:17:42;;;;;;;6.60;4.67;;;19.00;99.90;18.50;100758;;;;583876;242;24044;-82
2022/07/19 04:20:10;;;;;;;7.07;4.50;;;19.10;99.90;18.60;100759;;;;581306;243;24038;-83
2022/07/19 04:22:38;;;;;;;8.33;4.60;;;19.20;99.90;18.70;100751;;;;592617;242;24036;-84
2022/07/19 04:25:06;;;;;;;5.17;4.70;;;19.20;99.90;18.80;100753;;;;581387;243;24092;-83
2022/07/19 04:27:33;;;;;;;4.47;4.07;;;19.30;99.90;19.00;100749;;;;592572;238;24133;-83
2022/07/19 04:30:01;;;;;;;5.63;4.37;;;19.50;99.90;19.20;100748;;;;581771;243;24045;-86
2022/07/19 04:32:29;;;;;;;7.87;4.10;;;19.70;99.90;19.40;100752;;;;583935;242;24036;-85
2022/07/19 04:34:57;;;;;;;8.83;4.63;;;19.80;99.90;19.60;100736;;;;581660;243;24075;-84
2022/07/19 04:37:25;;;;;;;4.57;4.13;;;20.10;99.90;19.80;100741;;;;581471;243;24044;-85
2022/07/19 04:39:54;;;;;;;5.33;4.63;;;20.50;99.90;20.00;100740;;;;581394;243;24118;-86
2022/07/19 04:42:22;;;;;;;5.30;4.80;;;20.50;99.90;20.20;100736;;;;581358;243;23064;-84
2022/07/19 04:44:50;;;;;;;5.50;4.40;;;20.70;99.90;20.40;100734;;;;581285;243;24042;-83
2022/07/19 04:47:17;;;;;;;10.40;4.67;;;20.90;99.90;20.60;100740;;;;581209;243;24059;-82
2022/07/19 04:49:45;;;;;;;5.50;4.53;;;21.10;99.90;20.80;100743;;;;581378;243;24066;-83
2022/07/19 04:52:13;;;;;;;8.30;4.60;;;21.40;99.90;21.20;100738;;;;581355;243;23061;-83
2022/07/19 04:54:41;;;;;;;5.10;4.40;;;21.70;99.90;21.60;100736;;;;581289;243;23064;-83
2022/07/19 04:57:09;;;;;;;7.83;4.27;;;22.00;99.90;21.80;100732;;;;581333;243;24040;-83
2022/07/19 04:59:38;;;;;;;4.83;4.27;;;22.70;99.90;22.30;100739;;;;581373;243;23125;-83
2022/07/19 05:02:06;;;;;;;7.27;4.70;;;22.70;99.90;23.00;100744;;;;592333;238;23075;-82
2022/07/19 05:04:34;;;;;;;5.03;4.37;;;23.30;99.90;23.60;100739;;;;580869;243;24062;-84
2022/07/19 05:07:02;;;;;;;8.53;4.43;;;24.50;99.90;24.10;100747;;;;580995;243;24052;-82
2022/07/19 05:09:31;;;;;;;11.90;5.00;;;25.10;99.90;24.60;100749;;;;580939;243;24118;-84
2022/07/19 05:12:00;;;;;;;4.93;4.43;;;26.10;99.90;25.80;100754;;;;582048;242;24130;-84
2022/07/19 05:14:28;;;;;;;7.27;4.00;;;26.10;99.90;27.80;100761;;;;582106;242;23106;-84
2022/07/19 05:16:56;;;;;;;8.17;4.90;;;27.90;99.90;28.70;100761;;;;584274;242;23072;-84
2022/07/19 05:19:26;;;;;;;5.90;5.27;;;29.10;99.90;28.30;100757;;;;581745;242;23071;-83
2022/07/19 05:21:51;;;;;;;11.63;4.97;;;29.10;98.40;27.60;100758;;;;589910;242;24090;-83
2022/07/19 05:24:19;;;;;;;5.17;4.37;;;28.60;97.30;26.90;100754;;;;583817;242;23062;-83
2022/07/19 05:26:48;;;;;;;5.00;4.60;;;27.80;97.40;26.40;100748;;;;581486;242;23112;-84
2022/07/19 05:29:15;;;;;;;5.03;4.53;;;27.20;97.90;27.50;100748;;;;581562;243;24065;-83
2022/07/19 05:31:44;;;;;;;7.20;4.57;;;29.70;96.10;29.60;100748;;;;581601;243;23082;-83
2022/07/19 05:34:12;;;;;;;6.40;4.70;;;31.80;91.50;31.60;100752;;;;581673;243;23053;-84
2022/07/19 05:36:41;;;;;;;5.32;4.82;;;33.40;82.10;33.20;100752;;;;583773;242;24092;-83
2022/07/19 05:39:09;;;;;;;6.18;4.57;;;33.30;81.90;34.50;100750;;;;583861;243;23110;-83
2022/07/19 05:41:40;;;;;;;5.32;4.82;;;35.00;74.10;34.50;100754;;;;586332;243;24078;-83
2022/07/19 05:44:05;;;;;;;4.80;4.50;;;35.20;67.60;34.60;100757;;;;583601;243;23139;-85
2022/07/19 05:46:33;;;;;;;4.62;4.25;;;35.40;67.00;35.80;100760;;;;581560;243;24095;-84
2022/07/19 05:49:01;;;;;;;4.95;4.45;;;36.30;64.40;37.30;100757;;;;581330;243;23062;-83
2022/07/19 05:51:29;;;;;;;6.43;5.00;;;37.60;58.60;38.20;100760;;;;581314;243;23072;-84
2022/07/19 05:53:57;;;;;;;5.68;4.90;;;38.60;56.30;39.20;100767;;;;581336;243;24077;-84
2022/07/19 05:56:25;;;;;;;11.10;10.10;;;40.40;51.50;39.90;100768;;;;580974;238;23072;-85
2022/07/19 05:58:53;;;;;;;5.30;4.90;;;40.30;51.40;40.40;100756;;;;583289;243;23108;-84
2022/07/19 06:01:24;;;;;;;5.18;4.72;;;40.90;49.30;40.80;100762;;;;575912;243;35081;-84
2022/07/19 06:03:54;;;;;;;9.18;4.90;;;41.30;49.10;41.30;100767;;;;592204;242;23076;-83
2022/07/19 06:06:22;;;;;;;6.28;4.70;;;41.90;48.00;42.20;100774;;;;589511;240;23045;-83
2022/07/19 06:08:50;;;;;;;6.18;4.97;;;42.60;46.30;42.40;100763;;;;592057;242;23057;-84
2022/07/19 06:11:18;;;;;;;5.95;4.35;;;43.00;45.40;42.50;100767;;;;583291;243;23127;-83
2022/07/19 06:13:49;;;;;;;12.30;4.93;;;43.20;45.30;43.30;100774;;;;583114;242;24106;-84
2022/07/19 06:16:17;;;;;;;11.63;5.05;;;43.60;44.60;43.90;100770;;;;582508;246;24132;-83
2022/07/19 06:18:48;;;;;;;6.28;5.00;;;44.30;43.40;44.10;100771;;;;583331;243;23068;-83
2022/07/19 06:21:15;;;;;;;4.72;4.32;;;44.60;43.00;44.10;100776;;;;589344;243;23069;-86
2022/07/19 06:23:43;;;;;;;19.83;5.65;;;44.70;42.70;44.30;100772;;;;584379;242;23094;-85
2022/07/19 06:26:15;;;;;;;22.65;5.72;;;44.90;42.10;44.60;100768;;;;582098;242;23066;-83
2022/07/19 06:28:39;;;;;;;9.77;4.72;;;45.10;42.60;45.10;100783;;;;593091;237;23215;-85
2022/07/19 06:31:10;;;;;;;8.13;4.55;;;45.50;41.50;45.50;100775;;;;593726;242;23083;-86
2022/07/19 06:33:43;;;;;;;9.48;5.25;;;46.00;41.00;46.10;100774;;;;584706;240;23071;-87
2022/07/19 06:36:11;;;;;;;19.23;5.40;;;46.60;41.50;46.60;100780;;;;584980;242;23052;-83
2022/07/19 06:38:42;;;;;;;9.90;4.95;;;47.00;39.60;46.60;100781;;;;585087;242;23095;-87
2022/07/19 06:41:12;;;;;;;7.35;4.30;;;47.10;39.30;46.60;100781;;;;584117;243;23071;-87
2022/07/19 06:43:38;;;;;;;10.73;5.07;;;47.20;39.00;46.90;100781;;;;573777;247;23085;-85
2022/07/19 06:46:06;;;;;;;52.92;7.43;;;47.70;38.90;47.40;100794;;;;583896;243;24099;-86
2022/07/19 06:48:35;;;;;;;9.60;4.83;;;48.10;37.80;47.70;100787;;;;578942;243;35099;-87
2022/07/19 06:51:03;;;;;;;24.25;5.50;;;48.00;37.70;47.80;100781;;;;586640;243;23054;-86
2022/07/19 06:53:31;;;;;;;26.12;5.95;;;48.30;37.50;47.90;100785;;;;584356;243;23083;-87
2022/07/19 06:55:59;;;;;;;13.65;5.35;;;48.40;37.40;48.20;100793;;;;582040;243;23098;-84
2022/07/19 06:58:28;;;;;;;8.73;4.65;;;48.50;37.40;48.50;100788;;;;581710;243;23069;-85
2022/07/19 07:00:55;;;;;;;6.43;4.40;;;48.80;37.10;49.00;100789;;;;581454;243;23122;-84
2022/07/19 07:03:22;;;;;;;9.40;4.82;;;49.20;36.60;49.30;100792;;;;581045;243;23057;-86
2022/07/19 07:05:50;;;;;;;11.30;5.87;;;49.50;36.90;49.90;100792;;;;592234;238;24096;-84
2022/07/19 07:08:18;;;;;;;40.25;9.93;;;50.00;36.10;50.20;100801;;;;581175;243;23077;-85
2022/07/19 07:10:47;;;;;;;5.20;4.70;;;50.60;35.10;50.50;100796;;;;580964;243;23060;-85
2022/07/19 07:13:16;;;;;;;8.48;5.45;;;50.70;35.10;50.40;100801;;;;580963;243;23174;-85
2022/07/19 07:15:47;;;;;;;5.62;5.07;;;50.70;35.10;50.60;100793;;;;581068;243;23055;-86
2022/07/19 07:18:11;;;;;;;12.77;5.85;;;50.80;34.70;50.80;100798;;;;580793;243;23056;-82
2022/07/19 07:20:42;;;;;;;11.35;5.80;;;50.90;34.90;50.70;100795;;;;585843;240;23155;-86
2022/07/19 07:23:07;;;;;;;6.78;6.05;;;51.10;34.40;50.70;100800;;;;583160;243;23083;-85
2022/07/19 07:25:35;;;;;;;36.80;7.25;;;51.10;34.20;50.80;100804;;;;576431;243;35180;-85
2022/07/19 07:28:06;;;;;;;64.62;9.68;;;51.20;34.60;51.10;100806;;;;576286;243;35139;-86
2022/07/19 07:30:31;;;;;;;7.50;5.75;;;51.30;34.30;51.50;100798;;;;583328;243;23097;-87
2022/07/19 07:32:59;;;;;;;7.55;5.05;;;51.70;34.10;51.90;100808;;;;581510;243;23052;-85
2022/07/19 07:35:27;;;;;;;6.12;5.53;;;52.00;33.70;51.80;100805;;;;582947;242;23064;-85
2022/07/19 07:37:55;;;;;;;4.90;4.60;;;52.10;32.90;51.90;100805;;;;582486;242;23098;-85
2022/07/19 07:40:24;;;;;;;11.40;6.28;;;52.10;32.70;51.30;100813;;;;582199;242;24080;-85
2022/07/19 07:42:52;;;;;;;5.80;5.22;;;51.70;32.70;51.20;100816;;;;582279;242;24092;-85
2022/07/19 07:45:20;;;;;;;26.65;6.62;;;51.40;32.90;51.50;100814;;;;581786;242;23151;-86
2022/07/19 07:47:48;;;;;;;5.87;5.37;;;51.50;32.30;51.50;100814;;;;581563;242;23061;-86
2022/07/19 07:50:16;;;;;;;8.52;5.43;;;51.70;32.10;51.60;100816;;;;581857;242;23061;-86
2022/07/19 07:52:44;;;;;;;8.02;5.65;;;51.70;32.30;51.90;100805;;;;581637;243;23056;-87
2022/07/19 07:55:11;;;;;;;11.80;6.07;;;51.90;32.20;52.00;100814;;;;581766;243;23076;-87
2022/07/19 07:57:39;;;;;;;50.63;8.70;;;52.20;32.00;51.90;100816;;;;581849;243;23056;-86
2022/07/19 08:00:11;;;;;;;27.45;6.78;;;52.20;31.20;52.20;100813;;;;581399;243;23052;-88
2022/07/19 08:02:39;;;;;;;25.67;6.97;;;52.10;31.10;52.20;100811;;;;592788;242;23085;-90
2022/07/19 08:05:07;;;;;;;6.90;5.50;;;52.30;31.00;52.20;100813;;;;580065;243;23069;-87
2022/07/19 08:07:36;;;;;;;17.20;6.37;;;52.40;31.20;52.40;100807;;;;592485;242;23142;-86
2022/07/19 08:10:06;;;;;;;5.45;5.05;;;52.40;31.10;52.20;100820;;;;583384;243;23183;-87
2022/07/19 08:12:34;;;;;;;96.55;12.52;;;52.50;30.90;52.10;100819;;;;589919;243;23088;-87
2022/07/19 08:15:02;;;;;;;9.23;5.22;;;52.30;30.70;52.10;100815;;;;583245;243;23082;-86
2022/07/19 08:17:30;;;;;;;14.27;5.53;;;52.20;30.60;52.20;100815;;;;580898;243;23060;-85
2022/07/19 08:19:59;;;;;;;35.38;7.45;;;52.30;30.50;52.00;100814;;;;580997;243;23068;-86
2022/07/19 08:22:28;;;;;;;8.55;5.30;;;52.10;31.20;51.60;100819;;;;585531;243;23080;-84
2022/07/19 08:24:55;;;;;;;5.45;4.95;;;51.70;30.80;51.20;100819;;;;585757;238;23076;-85
2022/07/19 08:27:23;;;;;;;24.25;6.95;;;51.30;30.80;50.90;100814;;;;580957;243;23072;-85
2022/07/19 08:29:51;;;;;;;10.13;5.43;;;51.30;30.70;50.80;100814;;;;585527;243;23143;-85
2022/07/19 08:32:20;;;;;;;12.45;6.00;;;51.20;31.20;51.00;100823;;;;581266;243;23124;-84
2022/07/19 08:34:48;;;;;;;12.10;5.78;;;51.20;31.20;51.00;100808;;;;585995;243;23054;-84
2022/07/19 08:37:17;;;;;;;5.40;5.00;;;51.30;30.80;51.20;100817;;;;581327;243;23061;-83
2022/07/19 08:39:46;;;;;;;9.68;4.78;;;51.60;30.10;51.40;100823;;;;581317;243;23073;-84
2022/07/19 08:42:16;;;;;;;6.78;5.25;;;51.70;30.70;51.50;100824;;;;581240;243;23062;-83
2022/07/19 08:44:42;;;;;;;4.87;4.55;;;51.60;30.50;51.40;100823;;;;583294;243;23145;-84
2022/07/19 08:47:11;;;;;;;8.07;4.97;;;51.70;30.50;51.40;100814;;;;584744;242;23106;-84
2022/07/19 08:49:39;;;;;;;47.22;8.68;;;51.70;30.40;51.50;100813;;;;584667;242;23068;-86
2022/07/19 08:52:08;;;;;;;9.27;5.07;;;51.70;30.70;51.90;100810;;;;584327;242;23069;-86
2022/07/19 08:54:36;;;;;;;56.65;9.68;;;52.10;30.70;52.20;100823;;;;582116;242;23064;-85
2022/07/19 08:59:50;;;;;;;4.87;3.97;;;52.60;30.00;52.90;100810;;;;592901;242;23091;-87
2022/07/19 09:02:19;;;;;;;19.20;5.80;;;53.50;29.80;52.90;100820;;;;583529;242;24114;-85
2022/07/19 09:05:05;;;;;;;77.78;9.82;;;53.50;30.00;52.70;100820;;;;581369;243;23055;-84
2022/07/19 09:07:30;;;;;;;5.50;5.03;;;53.50;29.90;53.10;100818;;;;589691;239;23061;-84
2022/07/19 09:10:22;;;;;;;33.33;6.35;;;53.70;29.90;53.40;100819;;;;592441;242;23072;-86
2022/07/19 09:13:02;;;;;;;5.32;4.50;;;54.00;29.80;53.00;100821;;;;583728;243;23061;-85
2022/07/19 09:15:51;;;;;;;65.90;9.90;;;54.00;29.60;53.10;100828;;;;583355;243;23071;-85
2022/07/19 09:18:19;;;;;;;4.80;4.40;;;53.90;30.30;53.10;100828;;;;583338;243;24108;-86
2022/07/19 09:20:47;;;;;;;10.90;5.30;;;54.00;29.80;52.70;100825;;;;583179;243;23060;-86
2022/07/19 09:23:15;;;;;;;5.90;4.60;;;53.60;29.70;52.60;100820;;;;583209;243;23088;-84
2022/07/19 09:25:43;;;;;;;6.55;4.78;;;53.40;30.00;52.80;100825;;;;592260;242;24133;-84
2022/07/19 09:28:12;;;;;;;15.55;6.05;;;54.00;29.80;53.30;100822;;;;583076;243;23152;-85
2022/07/19 09:30:46;;;;;;;7.12;6.53;;;53.90;29.90;53.00;100823;;;;580909;243;23055;-85
2022/07/19 09:33:18;;;;;;;5.35;4.93;;;54.00;29.70;53.20;100824;;;;583520;243;23056;-85
2022/07/19 09:35:46;;;;;;;4.75;4.45;;;53.90;29.60;53.40;100824;;;;583401;243;23098;-86
2022/07/19 09:38:29;;;;;;;4.95;4.45;;;54.10;29.70;53.40;100823;;;;583300;243;23114;-86
2022/07/19 09:41:17;;;;;;;6.03;4.70;;;54.20;29.40;53.20;100823;;;;583339;243;23061;-85
2022/07/19 09:44:08;;;;;;;15.05;5.68;;;54.60;29.30;53.70;100821;;;;583548;243;23057;-85
2022/07/19 09:46:44;;;;;;;5.35;4.85;;;54.60;29.70;54.30;100824;;;;583511;243;23120;-85
2022/07/19 09:49:15;;;;;;;6.97;4.47;;;55.50;29.20;54.40;100819;;;;583268;243;23073;-86
2022/07/19 09:51:49;;;;;;;22.05;6.15;;;55.50;29.20;54.50;100826;;;;583332;243;23096;-85
2022/07/19 09:54:18;;;;;;;5.82;4.90;;;55.70;29.00;54.50;100832;;;;573644;247;25415;-86
2022/07/19 09:56:49;;;;;;;11.63;4.90;;;55.70;28.90;54.70;100813;;;;582894;243;23210;-86
2022/07/19 09:59:17;;;;;;;7.45;4.85;;;55.80;29.00;54.60;100821;;;;584110;242;23112;-86
2022/07/19 10:01:45;;;;;;;5.05;4.57;;;55.90;29.10;54.80;100819;;;;583537;241;23104;-86
2022/07/19 10:04:11;;;;;;;5.40;4.75;;;56.10;28.70;55.00;100819;;;;581436;242;23088;-85
2022/07/19 10:06:40;;;;;;;6.32;4.57;;;56.00;29.20;54.80;100822;;;;583455;242;23140;-85
2022/07/19 10:09:08;;;;;;;10.10;4.03;;;56.00;28.90;54.50;100824;;;;583862;242;24136;-86
2022/07/19 10:11:37;;;;;;;13.13;5.12;;;55.70;29.10;54.60;100822;;;;592353;242;23097;-86
2022/07/19 10:14:05;;;;;;;19.60;5.65;;;55.80;29.00;54.20;100817;;;;583619;242;23123;-85
2022/07/19 10:16:42;;;;;;;9.60;4.68;;;55.20;29.00;54.00;100816;;;;583541;241;23105;-84
2022/07/19 10:19:40;;;;;;;23.67;6.18;;;55.20;29.00;53.90;100824;;;;592501;242;23059;-86
2022/07/19 10:22:14;;;;;;;95.47;11.30;;;55.00;29.80;53.10;100823;;;;592888;238;23129;-84
2022/07/19 10:25:12;;;;;;;13.60;4.90;;;54.40;29.20;52.30;100823;;;;580975;241;23124;-86
2022/07/19 10:27:40;;;;;;;36.53;8.00;;;53.60;29.80;51.90;100831;;;;591638;243;24105;-86
2022/07/19 10:30:08;;;;;;;21.60;6.35;;;53.20;30.50;51.10;100833;;;;583572;243;23114;-86
2022/07/19 10:32:40;;;;;;;8.10;4.40;;;52.60;30.40;50.50;100831;;;;592575;242;23059;-88
2022/07/19 10:35:26;;;;;;;77.00;10.63;;;51.80;31.00;50.20;100837;;;;583208;243;23096;-85
2022/07/19 10:37:55;;;;;;;5.53;4.43;;;50.40;31.20;49.00;100827;;;;583860;243;23101;-89
2022/07/19 10:40:45;;;;;;;6.05;4.05;;;49.00;32.30;47.40;100831;;;;582521;243;23120;-86
2022/07/19 10:43:20;;;;;;;56.80;8.63;;;48.90;32.30;45.40;100826;;;;583409;242;24152;-84
2022/07/19 10:46:02;;;;;;;35.17;5.70;;;47.00;33.80;44.20;100828;;;;585875;243;23114;-85
2022/07/19 10:48:48;;;;;;;4.50;4.10;;;45.50;35.30;42.90;100834;;;;588116;238;45951;-88
2022/07/19 10:51:28;;;;;;;5.70;3.67;;;43.80;37.00;41.70;100836;;;;584500;243;24193;-82
2022/07/19 10:53:57;;;;;;;4.40;3.97;;;40.90;40.70;40.50;100844;;;;578433;242;46096;-85
2022/07/19 10:56:30;;;;;;;7.55;4.18;;;40.70;40.50;39.20;100827;;;;583458;243;23071;-90
2022/07/19 10:58:58;;;;;;;35.50;6.75;;;39.50;41.00;37.80;100833;;;;583532;243;23097;-83
2022/07/19 11:01:27;;;;;;;43.72;7.40;;;38.10;43.40;36.40;100830;;;;582837;242;23129;-85
2022/07/19 11:03:55;;;;;;;58.47;8.90;;;35.60;46.50;35.40;100827;;;;582802;243;23131;-84
2022/07/19 11:06:29;;;;;;;11.15;4.35;;;35.50;46.40;34.70;100821;;;;579741;243;24086;-83
2022/07/19 11:08:56;;;;;;;32.75;5.53;;;34.80;48.30;34.00;100827;;;;582700;241;23175;-83
2022/07/19 11:11:25;;;;;;;6.18;3.50;;;34.10;48.80;33.20;100826;;;;584500;242;23099;-84
2022/07/19 11:13:52;;;;;;;3.78;3.37;;;33.30;49.50;32.70;100824;;;;586391;240;23139;-83
2022/07/19 11:16:20;;;;;;;52.92;6.82;;;32.70;50.80;32.00;100822;;;;593335;242;23067;-84
2022/07/19 11:18:48;;;;;;;33.25;6.43;;;32.10;51.80;31.60;100815;;;;583806;238;23098;-87
2022/07/19 11:21:16;;;;;;;9.32;4.28;;;31.60;52.40;31.30;100812;;;;593634;242;23075;-88